createdAt,value
2022-09-11T00:00:59.792Z,101745.09
2022-09-11T00:03:32.606Z,101751.47
2022-09-11T00:06:10.601Z,101747.53
2022-09-11T00:08:43.717Z,101750.25
2022-09-11T00:11:18.607Z,101745.50
2022-09-11T00:13:54.262Z,101748.66
2022-09-11T00:16:30.226Z,101745.47
2022-09-11T00:19:06.157Z,101745.88
2022-09-11T00:21:40.334Z,101738.81
2022-09-11T00:24:13.244Z,101745.91
2022-09-11T00:26:47.800Z,101739.19
2022-09-11T00:29:20.779Z,101739.97
2022-09-11T00:31:53.855Z,101750.31
2022-09-11T00:34:26.387Z,101742.41
2022-09-11T00:37:00.338Z,101747.97
2022-09-11T00:39:34.778Z,101753.53
2022-09-11T00:42:08.155Z,101746.81
2022-09-11T00:45:03.139Z,101751.19
2022-09-11T00:47:37.265Z,101745.69
2022-09-11T00:50:13.557Z,101744.84
2022-09-11T00:52:53.248Z,101749.63
2022-09-11T00:55:28.784Z,101750.03
2022-09-11T00:58:05.920Z,101739.34
2022-09-11T01:00:40.467Z,101741.28
2022-09-11T01:03:13.550Z,101748.06
2022-09-11T01:05:48.286Z,101755.22
2022-09-11T01:08:23.239Z,101755.63
2022-09-11T01:11:12.882Z,101762.34
2022-09-11T01:13:52.767Z,101758.84
2022-09-11T01:16:34.750Z,101762.38
2022-09-11T01:19:20.120Z,101753.25
2022-09-11T01:22:08.402Z,101754.84
2022-09-11T01:25:06.952Z,101762.41
2022-09-11T01:27:50.282Z,101760.03
2022-09-11T01:30:23.557Z,101752.09
2022-09-11T01:33:08.615Z,101744.59
2022-09-11T01:35:51.043Z,101746.53
2022-09-11T01:38:31.672Z,101745.38
2022-09-11T01:41:09.863Z,101753.31
2022-09-11T01:43:51.597Z,101748.94
2022-09-11T01:46:27.813Z,101748.16
2022-09-11T01:49:06.670Z,101748.16
2022-09-11T01:51:41.481Z,101754.91
2022-09-11T01:54:18.814Z,101757.69
2022-09-11T01:56:56.469Z,101749.72
2022-09-11T01:59:37.046Z,101753.28
2022-09-11T02:02:15.031Z,101756.44
2022-09-11T02:04:53.103Z,101751.25
2022-09-11T02:07:32.131Z,101755.63
2022-09-11T02:10:10.396Z,101754.47
2022-09-11T02:12:47.549Z,101757.63
2022-09-11T02:15:25.358Z,101759.63
2022-09-11T02:18:03.341Z,101761.25
2022-09-11T02:20:38.483Z,101766.03
2022-09-11T02:23:11.196Z,101771.16
2022-09-11T02:25:44.073Z,101765.59
2022-09-11T02:28:17.758Z,101768.03
2022-09-11T02:30:52.000Z,101773.97
2022-09-11T02:33:33.119Z,101774.34
2022-09-11T02:36:20.242Z,101774.38
2022-09-11T02:39:10.803Z,101769.63
2022-09-11T02:41:55.276Z,101772.78
2022-09-11T02:44:35.442Z,101770.00
2022-09-11T02:47:20.530Z,101763.66
2022-09-11T02:50:07.077Z,101763.25
2022-09-11T02:52:50.170Z,101761.31
2022-09-11T02:55:32.910Z,101764.06
2022-09-11T02:58:10.969Z,101764.88
2022-09-11T03:00:48.319Z,101765.28
2022-09-11T03:03:22.415Z,101768.84
2022-09-11T03:05:55.373Z,101766.47
2022-09-11T03:08:31.491Z,101773.22
2022-09-11T03:11:04.753Z,101773.19
2022-09-11T03:13:38.090Z,101775.97
2022-09-11T03:16:12.234Z,101774.41
2022-09-11T03:18:46.375Z,101765.69
2022-09-11T03:21:20.285Z,101761.72
2022-09-11T03:23:52.971Z,101760.53
2022-09-11T03:26:26.256Z,101763.31
2022-09-11T03:28:59.066Z,101767.69
2022-09-11T03:31:31.803Z,101765.69
2022-09-11T03:34:06.708Z,101764.09
2022-09-11T03:36:40.194Z,101760.94
2022-09-11T03:39:13.346Z,101766.88
2022-09-11T03:41:46.021Z,101762.50
2022-09-11T03:44:18.967Z,101776.78
2022-09-11T03:46:52.697Z,101773.59
2022-09-11T03:49:26.979Z,101769.63
2022-09-11T03:52:01.078Z,101774.00
2022-09-11T03:54:34.389Z,101776.78
2022-09-11T03:57:09.631Z,101775.19
2022-09-11T03:59:44.010Z,101776.00
2022-09-11T04:02:16.801Z,101783.09
2022-09-11T04:04:51.071Z,101781.91
2022-09-11T04:07:24.419Z,101787.88
2022-09-11T04:09:57.230Z,101787.81
2022-09-11T04:12:30.052Z,101789.00
2022-09-11T04:15:02.846Z,101789.81
2022-09-11T04:17:37.523Z,101790.19
2022-09-11T04:20:11.911Z,101790.19
2022-09-11T04:22:45.257Z,101793.72
2022-09-11T04:25:18.888Z,101802.03
2022-09-11T04:27:51.571Z,101795.69
2022-09-11T04:30:24.295Z,101790.56
2022-09-11T04:32:58.190Z,101801.66
2022-09-11T04:35:32.742Z,101798.88
2022-09-11T04:38:06.827Z,101792.53
2022-09-11T04:40:41.004Z,101792.53
2022-09-11T04:43:13.652Z,101794.88
2022-09-11T04:45:46.476Z,101799.25
2022-09-11T04:48:19.095Z,101800.84
2022-09-11T04:51:02.663Z,101807.97
2022-09-11T04:53:36.136Z,101813.88
2022-09-11T04:56:12.338Z,101818.22
2022-09-11T04:58:55.081Z,101819.78
2022-09-11T05:01:32.464Z,101821.78
2022-09-11T05:04:05.285Z,101819.78
2022-09-11T05:06:40.062Z,101814.63
2022-09-11T05:09:18.365Z,101823.34
2022-09-11T05:11:52.890Z,101825.75
2022-09-11T05:14:28.143Z,101834.00
2022-09-11T05:17:02.293Z,101833.22
2022-09-11T05:19:36.576Z,101828.84
2022-09-11T05:22:10.810Z,101828.03
2022-09-11T05:24:47.800Z,101833.56
2022-09-11T05:27:20.588Z,101837.53
2022-09-11T05:29:53.310Z,101844.66
2022-09-11T05:32:26.126Z,101843.50
2022-09-11T05:34:59.487Z,101846.25
2022-09-11T05:37:33.711Z,101850.59
2022-09-11T05:40:07.976Z,101858.88
2022-09-11T05:42:40.838Z,101854.91
2022-09-11T05:45:13.639Z,101858.06
2022-09-11T05:47:46.630Z,101850.47
2022-09-11T05:50:21.586Z,101849.34
2022-09-11T05:52:56.310Z,101849.34
2022-09-11T05:55:29.374Z,101854.09
2022-09-11T05:58:03.007Z,101846.19
2022-09-11T06:00:35.631Z,101855.31
2022-09-11T06:03:10.606Z,101851.75
2022-09-11T06:05:46.391Z,101849.75
2022-09-11T06:08:20.429Z,101860.06
2022-09-11T06:10:53.062Z,101856.50
2022-09-11T06:13:26.583Z,101853.31
2022-09-11T06:15:59.300Z,101852.13
2022-09-11T06:18:33.886Z,101849.75
2022-09-11T06:21:11.832Z,101850.19
2022-09-11T06:23:57.002Z,101844.63
2022-09-11T06:26:30.432Z,101847.03
2022-09-11T06:29:03.107Z,101849.38
2022-09-11T06:31:36.760Z,101850.56
2022-09-11T06:34:09.621Z,101857.31
2022-09-11T06:36:45.165Z,101854.53
2022-09-11T06:39:22.816Z,101862.47
2022-09-11T06:41:56.258Z,101860.13
2022-09-11T06:44:35.463Z,101863.28
2022-09-11T06:47:09.071Z,101862.13
2022-09-11T06:49:42.403Z,101865.34
2022-09-11T06:52:35.939Z,101871.69
2022-09-11T06:55:37.000Z,101874.44
2022-09-11T06:58:13.754Z,101872.47
2022-09-11T07:00:47.637Z,101870.88
2022-09-11T07:03:20.552Z,101874.88
2022-09-11T07:05:56.045Z,101881.59
2022-09-11T07:08:29.762Z,101883.59
2022-09-11T07:11:05.569Z,101885.22
2022-09-11T07:13:40.609Z,101876.19
2022-09-11T07:16:15.116Z,101895.63
2022-09-11T07:18:49.378Z,101896.41
2022-09-11T07:21:28.527Z,101883.78
2022-09-11T07:24:05.159Z,101878.63
2022-09-11T07:26:46.532Z,101885.75
2022-09-11T07:29:25.049Z,101892.91
2022-09-11T07:31:58.577Z,101891.72
2022-09-11T07:34:33.251Z,101891.72
2022-09-11T07:37:10.382Z,101889.34
2022-09-11T07:39:44.530Z,101890.94
2022-09-11T07:42:25.529Z,101902.06
2022-09-11T07:44:58.165Z,101902.88
2022-09-11T07:47:34.676Z,101895.69
2022-09-11T07:50:08.829Z,101897.28
2022-09-11T07:52:42.513Z,101894.50
2022-09-11T07:55:15.246Z,101902.00
2022-09-11T07:57:52.597Z,101897.97
2022-09-11T08:00:26.051Z,101903.56
2022-09-11T08:03:15.277Z,101901.19
2022-09-11T08:05:47.922Z,101911.50
2022-09-11T08:08:21.222Z,101908.28
2022-09-11T08:10:55.512Z,101905.88
2022-09-11T08:13:30.112Z,101909.00
2022-09-11T08:16:04.215Z,101911.34
2022-09-11T08:18:37.241Z,101911.34
2022-09-11T08:21:13.121Z,101912.91
2022-09-11T08:23:46.641Z,101909.69
2022-09-11T08:26:22.008Z,101918.00
2022-09-11T08:28:59.871Z,101929.31
2022-09-11T08:31:36.117Z,101923.69
2022-09-11T08:34:10.793Z,101934.03
2022-09-11T08:36:44.961Z,101929.16
2022-09-11T08:39:18.080Z,101928.28
2022-09-11T08:42:01.282Z,101927.41
2022-09-11T08:44:44.046Z,101927.72
2022-09-11T08:47:26.913Z,101937.59
2022-09-11T08:50:06.842Z,101929.94
2022-09-11T08:52:41.337Z,101937.34
2022-09-11T08:55:22.847Z,101929.75
2022-09-11T08:58:02.866Z,101933.25
2022-09-11T09:00:46.051Z,101933.88
2022-09-11T09:03:44.780Z,101938.59
2022-09-11T09:06:34.047Z,101944.44
2022-09-11T09:09:14.425Z,101939.53
2022-09-11T09:11:55.962Z,101939.28
2022-09-11T09:14:53.466Z,101937.63
2022-09-11T09:17:30.295Z,101942.75
2022-09-11T09:20:09.594Z,101948.94
2022-09-11T09:22:49.275Z,101945.97
2022-09-11T09:25:24.152Z,101939.72
2022-09-11T09:28:08.754Z,101953.91
2022-09-11T09:30:49.020Z,101947.25
2022-09-11T09:33:31.686Z,101955.16
2022-09-11T09:36:16.678Z,101953.47
2022-09-11T09:38:50.296Z,101948.34
2022-09-11T09:41:54.178Z,101960.34
2022-09-11T09:44:54.760Z,101962.09
2022-09-11T09:47:27.612Z,101964.19
2022-09-11T09:50:01.607Z,101965.50
2022-09-11T09:52:35.959Z,101956.44
2022-09-11T09:55:16.388Z,101956.06
2022-09-11T09:57:49.289Z,101955.38
2022-09-11T10:00:21.957Z,101957.97
2022-09-11T10:02:58.116Z,101962.28
2022-09-11T10:05:35.491Z,101955.22
2022-09-11T10:08:24.748Z,101957.84
2022-09-11T10:10:59.203Z,101962.72
2022-09-11T10:13:33.897Z,101958.94
2022-09-11T10:16:20.497Z,101959.16
2022-09-11T10:18:54.361Z,101948.53
2022-09-11T10:21:33.335Z,101951.72
2022-09-11T10:24:23.508Z,101952.75
2022-09-11T10:26:58.270Z,101952.94
2022-09-11T10:29:32.045Z,101951.66
2022-09-11T10:32:05.304Z,101950.47
2022-09-11T10:34:40.427Z,101946.25
2022-09-11T10:37:26.049Z,101942.78
2022-09-11T10:40:07.293Z,101941.53
2022-09-11T10:42:41.405Z,101937.09
2022-09-11T10:45:17.191Z,101932.41
2022-09-11T10:47:49.830Z,101946.03
2022-09-11T10:50:28.736Z,101945.59
2022-09-11T10:53:17.335Z,101944.28
2022-09-11T10:56:01.661Z,101939.56
2022-09-11T10:58:38.991Z,101934.59
2022-09-11T11:01:11.850Z,101934.38
2022-09-11T11:03:45.067Z,101932.16
2022-09-11T11:06:32.547Z,101927.44
2022-09-11T11:09:28.993Z,101931.22
2022-09-11T11:12:21.049Z,101928.88
2022-09-11T11:15:13.672Z,101932.91
2022-09-11T11:17:53.005Z,101926.13
2022-09-11T11:20:34.885Z,101923.97
2022-09-11T11:23:33.883Z,101923.06
2022-09-11T11:26:31.607Z,101917.19
2022-09-11T11:29:18.373Z,101916.75
2022-09-11T11:32:09.735Z,101917.50
2022-09-11T11:35:01.492Z,101915.41
2022-09-11T11:37:37.400Z,101914.22
2022-09-11T11:40:19.837Z,101914.66
2022-09-11T11:42:58.159Z,101910.34
2022-09-11T11:45:36.437Z,101910.53
2022-09-11T11:48:15.617Z,101916.22
2022-09-11T11:50:52.691Z,101914.38
2022-09-11T11:53:28.704Z,101912.19
2022-09-11T11:56:05.874Z,101915.50
2022-09-11T11:58:48.152Z,101916.00
2022-09-11T12:01:25.711Z,101920.53
2022-09-11T12:04:05.010Z,101920.88
2022-09-11T12:06:37.656Z,101919.63
2022-09-11T12:09:10.886Z,101914.31
2022-09-11T12:11:47.268Z,101916.22
2022-09-11T12:14:28.517Z,101919.22
2022-09-11T12:17:18.859Z,101918.16
2022-09-11T12:20:32.317Z,101916.84
2022-09-11T12:23:06.767Z,101920.72
2022-09-11T12:25:53.549Z,101918.75
2022-09-11T12:28:26.974Z,101916.69
2022-09-11T12:31:06.540Z,101920.59
2022-09-11T12:33:55.735Z,101910.97
2022-09-11T12:36:44.266Z,101911.56
2022-09-11T12:39:27.002Z,101910.00
2022-09-11T12:42:37.103Z,101908.97
2022-09-11T12:45:32.364Z,101900.13
2022-09-11T12:48:12.657Z,101895.56
2022-09-11T12:50:56.229Z,101896.78
2022-09-11T12:53:32.352Z,101900.00
2022-09-11T12:56:07.502Z,101899.66
2022-09-11T12:58:41.785Z,101895.84
2022-09-11T13:01:20.849Z,101892.81
2022-09-11T13:03:59.372Z,101890.47
2022-09-11T13:06:42.396Z,101883.91
2022-09-11T13:09:22.465Z,101883.31
2022-09-11T13:11:56.805Z,101889.03
2022-09-11T13:14:48.143Z,101881.16
2022-09-11T13:17:28.491Z,101878.06
2022-09-11T13:20:23.386Z,101876.84
2022-09-11T13:23:11.457Z,101874.84
2022-09-11T13:25:45.017Z,101873.72
2022-09-11T13:28:23.302Z,101882.38
2022-09-11T13:31:02.155Z,101876.63
2022-09-11T13:33:35.046Z,101864.72
2022-09-11T13:36:14.116Z,101871.59
2022-09-11T13:38:54.360Z,101866.78
2022-09-11T13:41:30.021Z,101863.22
2022-09-11T13:44:04.156Z,101858.94
2022-09-11T13:46:36.837Z,101858.53
2022-09-11T13:49:28.611Z,101853.78
2022-09-11T13:52:05.673Z,101865.06
2022-09-11T13:54:42.587Z,101861.19
2022-09-11T13:57:17.856Z,101849.22
2022-09-11T13:59:57.058Z,101847.44
2022-09-11T14:02:40.666Z,101839.84
2022-09-11T14:05:21.016Z,101845.66
2022-09-11T14:08:01.129Z,101845.09
2022-09-11T14:10:38.403Z,101848.75
2022-09-11T14:13:18.517Z,101850.00
2022-09-11T14:15:53.902Z,101851.56
2022-09-11T14:18:33.084Z,101839.78
2022-09-11T14:21:13.438Z,101831.97
2022-09-11T14:23:52.950Z,101834.13
2022-09-11T14:26:40.359Z,101836.50
2022-09-11T14:29:24.815Z,101831.75
2022-09-11T14:32:31.119Z,101834.72
2022-09-11T14:35:06.486Z,101831.47
2022-09-11T14:37:43.568Z,101835.72
2022-09-11T14:40:19.385Z,101838.63
2022-09-11T14:42:52.106Z,101837.84
2022-09-11T14:45:26.916Z,101837.16
2022-09-11T14:48:00.827Z,101838.53
2022-09-11T14:50:33.636Z,101834.13
2022-09-11T14:53:06.179Z,101833.16
2022-09-11T14:55:40.101Z,101834.16
2022-09-11T14:58:12.778Z,101835.06
2022-09-11T15:00:45.358Z,101825.81
2022-09-11T15:03:19.222Z,101818.06
2022-09-11T15:05:56.089Z,101812.78
2022-09-11T15:08:28.751Z,101816.91
2022-09-11T15:11:02.751Z,101813.88
2022-09-11T15:13:35.468Z,101810.75
2022-09-11T15:16:09.460Z,101804.13
2022-09-11T15:18:42.109Z,101806.25
2022-09-11T15:21:15.142Z,101806.28
2022-09-11T15:23:50.011Z,101803.41
2022-09-11T15:26:24.324Z,101809.66
2022-09-11T15:28:57.032Z,101802.38
2022-09-11T15:31:30.035Z,101804.59
2022-09-11T15:34:07.241Z,101801.34
2022-09-11T15:36:41.581Z,101799.34
2022-09-11T15:39:16.971Z,101801.38
2022-09-11T15:41:52.074Z,101798.69
2022-09-11T15:44:27.058Z,101784.56
2022-09-11T15:47:00.036Z,101785.44
2022-09-11T15:49:32.700Z,101794.41
2022-09-11T15:52:05.476Z,101795.66
2022-09-11T15:54:38.047Z,101787.47
2022-09-11T15:57:12.476Z,101780.28
2022-09-11T15:59:45.259Z,101781.75
2022-09-11T16:02:20.431Z,101785.63
2022-09-11T16:04:54.038Z,101785.97
2022-09-11T16:07:26.893Z,101792.56
2022-09-11T16:09:59.814Z,101788.88
2022-09-11T16:12:34.730Z,101781.91
2022-09-11T16:15:08.318Z,101783.91
2022-09-11T16:17:40.998Z,101782.00
2022-09-11T16:20:15.297Z,101779.72
2022-09-11T16:22:48.414Z,101780.31
2022-09-11T16:25:21.949Z,101770.28
2022-09-11T16:27:59.720Z,101778.69
2022-09-11T16:30:43.588Z,101765.44
2022-09-11T16:33:17.758Z,101771.56
2022-09-11T16:35:58.521Z,101765.72
2022-09-11T16:38:31.346Z,101758.88
2022-09-11T16:41:05.057Z,101763.88
2022-09-11T16:43:40.744Z,101754.06
2022-09-11T16:46:15.338Z,101754.16
2022-09-11T16:48:53.266Z,101753.16
2022-09-11T16:51:28.062Z,101746.47
2022-09-11T16:54:00.923Z,101746.84
2022-09-11T16:56:33.831Z,101740.88
2022-09-11T16:59:07.689Z,101738.88
2022-09-11T17:01:40.500Z,101737.41
2022-09-11T17:04:13.015Z,101733.91
2022-09-11T17:06:45.647Z,101734.25
2022-09-11T17:09:18.387Z,101733.91
2022-09-11T17:11:51.155Z,101736.97
2022-09-11T17:14:25.350Z,101731.03
2022-09-11T17:16:58.139Z,101737.56
2022-09-11T17:19:30.820Z,101740.38
2022-09-11T17:22:03.845Z,101735.50
2022-09-11T17:24:37.616Z,101733.13
2022-09-11T17:27:10.256Z,101737.84
2022-09-11T17:29:44.930Z,101729.72
2022-09-11T17:32:29.203Z,101733.19
2022-09-11T17:35:02.319Z,101734.09
2022-09-11T17:37:34.805Z,101725.34
2022-09-11T17:40:08.949Z,101731.03
2022-09-11T17:42:42.594Z,101721.56
2022-09-11T17:45:16.731Z,101723.25
2022-09-11T17:47:49.501Z,101724.81
2022-09-11T17:50:22.368Z,101719.06
2022-09-11T17:52:55.093Z,101719.91
2022-09-11T17:55:29.499Z,101713.28
2022-09-11T17:58:02.220Z,101722.88
2022-09-11T18:00:36.316Z,101709.31
2022-09-11T18:03:09.082Z,101701.44
2022-09-11T18:05:42.698Z,101712.69
2022-09-11T18:08:16.300Z,101712.34
2022-09-11T18:10:52.792Z,101711.63
2022-09-11T18:13:25.429Z,101712.19
2022-09-11T18:15:59.647Z,101710.38
2022-09-11T18:18:33.428Z,101713.28
2022-09-11T18:21:07.038Z,101709.16
2022-09-11T18:23:42.491Z,101706.97
2022-09-11T18:26:23.983Z,101718.25
2022-09-11T18:29:00.031Z,101715.16
2022-09-11T18:31:39.927Z,101716.81
2022-09-11T18:34:14.093Z,101709.72
2022-09-11T18:36:46.874Z,101718.59
2022-09-11T18:39:21.127Z,101714.69
2022-09-11T18:41:53.945Z,101702.94
2022-09-11T18:44:26.765Z,101702.94
2022-09-11T18:47:01.256Z,101701.84
2022-09-11T18:49:34.758Z,101701.13
2022-09-11T18:52:08.766Z,101707.19
2022-09-11T18:54:41.527Z,101704.63
2022-09-11T18:57:14.192Z,101701.91
2022-09-11T18:59:46.900Z,101701.19
2022-09-11T19:02:20.959Z,101705.22
2022-09-11T19:04:53.735Z,101706.84
2022-09-11T19:07:26.465Z,101715.28
2022-09-11T19:10:00.340Z,101706.69
2022-09-11T19:12:33.337Z,101709.09
2022-09-11T19:15:07.143Z,101711.91
2022-09-11T19:17:42.059Z,101722.34
2022-09-11T19:20:14.921Z,101721.75
2022-09-11T19:22:47.828Z,101719.03
2022-09-11T19:25:20.414Z,101726.63
2022-09-11T19:27:53.345Z,101725.84
2022-09-11T19:30:26.012Z,101718.25
2022-09-11T19:33:00.505Z,101717.94
2022-09-11T19:35:33.168Z,101721.69
2022-09-11T19:38:05.823Z,101720.97
2022-09-11T19:40:39.559Z,101722.31
2022-09-11T19:43:12.781Z,101723.97
2022-09-11T19:45:45.789Z,101723.16
2022-09-11T19:48:19.726Z,101725.22
2022-09-11T19:50:52.447Z,101721.59
2022-09-11T19:53:25.192Z,101722.53
2022-09-11T19:56:00.290Z,101722.97
2022-09-11T19:58:33.593Z,101726.25
2022-09-11T20:01:08.890Z,101721.06
2022-09-11T20:03:45.223Z,101727.50
2022-09-11T20:06:20.572Z,101723.59
2022-09-11T20:09:07.963Z,101718.44
2022-09-11T20:11:47.183Z,101720.56
2022-09-11T20:14:20.179Z,101722.59
2022-09-11T20:16:52.825Z,101714.66
2022-09-11T20:19:27.046Z,101711.94
2022-09-11T20:22:00.607Z,101723.09
2022-09-11T20:24:33.622Z,101706.44
2022-09-11T20:27:06.654Z,101715.25
2022-09-11T20:29:40.261Z,101717.19
2022-09-11T20:32:13.155Z,101716.91
2022-09-11T20:34:47.151Z,101719.81
2022-09-11T20:37:19.875Z,101713.88
2022-09-11T20:39:52.789Z,101719.91
2022-09-11T20:42:25.432Z,101721.94
2022-09-11T20:45:00.463Z,101718.78
2022-09-11T20:47:33.357Z,101714.47
2022-09-11T20:50:09.369Z,101712.06
2022-09-11T20:52:43.970Z,101711.72
2022-09-11T20:55:16.783Z,101713.72
2022-09-11T20:57:49.437Z,101709.34
2022-09-11T21:00:22.230Z,101707.78
2022-09-11T21:02:55.004Z,101701.50
2022-09-11T21:05:28.976Z,101703.09
2022-09-11T21:08:01.745Z,101702.38
2022-09-11T21:10:37.193Z,101703.59
2022-09-11T21:13:11.612Z,101702.78
2022-09-11T21:15:44.943Z,101700.44
2022-09-11T21:18:17.946Z,101699.31
2022-09-11T21:20:55.566Z,101691.41
2022-09-11T21:23:28.391Z,101697.38
2022-09-11T21:26:01.110Z,101684.28
2022-09-11T21:28:33.791Z,101687.06
2022-09-11T21:31:08.185Z,101687.50
2022-09-11T21:33:41.267Z,101689.09
2022-09-11T21:36:15.681Z,101692.31
2022-09-11T21:38:48.640Z,101695.16
2022-09-11T21:41:21.244Z,101695.59
2022-09-11T21:43:54.002Z,101692.81
2022-09-11T21:46:26.789Z,101692.44
2022-09-11T21:48:59.905Z,101694.03
2022-09-11T21:51:34.085Z,101690.88
2022-09-11T21:54:06.951Z,101696.88
2022-09-11T21:56:39.647Z,101696.13
2022-09-11T21:59:12.268Z,101694.50
2022-09-11T22:01:45.020Z,101690.56
2022-09-11T22:04:17.682Z,101692.59
2022-09-11T22:06:51.993Z,101687.84
2022-09-11T22:09:24.686Z,101691.06
2022-09-11T22:11:59.850Z,101689.50
2022-09-11T22:14:32.914Z,101689.16
2022-09-11T22:17:05.888Z,101684.78
2022-09-11T22:19:38.654Z,101691.13
2022-09-11T22:22:13.186Z,101686.78
2022-09-11T22:24:45.976Z,101677.66
2022-09-11T22:27:18.813Z,101673.28
2022-09-11T22:29:54.155Z,101669.75
2022-09-11T22:32:27.121Z,101667.38
2022-09-11T22:34:59.650Z,101672.94
2022-09-11T22:37:33.635Z,101666.66
2022-09-11T22:40:07.904Z,101666.66
2022-09-11T22:42:40.643Z,101659.13
2022-09-11T22:45:13.306Z,101664.28
2022-09-11T22:47:46.061Z,101673.09
2022-09-11T22:50:19.333Z,101661.97
2022-09-11T22:52:53.593Z,101659.59
2022-09-11T22:55:26.253Z,101651.66
2022-09-11T22:57:58.883Z,101646.13
2022-09-11T23:00:31.738Z,101651.66
2022-09-11T23:03:04.748Z,101658.03
2022-09-11T23:05:54.804Z,101652.47
2022-09-11T23:08:29.700Z,101654.06
2022-09-11T23:11:03.245Z,101651.31
2022-09-11T23:13:36.156Z,101648.53
2022-09-11T23:16:11.851Z,101640.59
2022-09-11T23:18:44.957Z,101649.75
2022-09-11T23:21:18.438Z,101656.50
2022-09-11T23:23:54.632Z,101642.97
2022-09-11T23:26:28.682Z,101643.84
2022-09-11T23:29:01.621Z,101648.22
2022-09-11T23:31:35.212Z,101639.88
2022-09-11T23:34:08.971Z,101635.16
2022-09-11T23:36:41.520Z,101640.72
2022-09-11T23:39:15.645Z,101643.09
2022-09-11T23:41:48.219Z,101636.72
2022-09-11T23:44:21.074Z,101629.19
2022-09-11T23:46:53.638Z,101629.66
2022-09-11T23:49:26.288Z,101625.78
2022-09-11T23:51:58.832Z,101618.69
2022-09-11T23:54:32.873Z,101614.69
2022-09-11T23:57:05.678Z,101619.47
2022-09-11T23:59:39.427Z,101625.03
